createdAt,value
2018-05-18T00:01:42.881Z,99.90
2018-05-18T00:04:16.416Z,99.90
2018-05-18T00:06:49.985Z,99.90
2018-05-18T00:09:23.529Z,99.90
2018-05-18T00:11:57.218Z,99.90
2018-05-18T00:14:31.699Z,99.90
2018-05-18T00:17:05.422Z,99.90
2018-05-18T00:19:39.163Z,99.90
2018-05-18T00:22:12.811Z,99.90
2018-05-18T00:24:46.533Z,99.90
2018-05-18T00:27:20.127Z,99.90
2018-05-18T00:29:53.681Z,99.90
2018-05-18T00:32:27.936Z,99.90
2018-05-18T00:35:01.551Z,99.90
2018-05-18T00:37:35.140Z,99.90
2018-05-18T00:40:08.719Z,99.90
2018-05-18T00:42:42.219Z,99.90
2018-05-18T00:45:15.841Z,99.90
2018-05-18T00:47:50.259Z,99.90
2018-05-18T00:50:23.864Z,99.90
2018-05-18T00:52:57.360Z,99.90
2018-05-18T00:55:40.831Z,99.90
2018-05-18T00:58:14.422Z,99.90
2018-05-18T01:00:48.069Z,99.90
2018-05-18T01:03:21.697Z,99.90
2018-05-18T01:05:55.300Z,99.90
2018-05-18T01:08:28.895Z,99.90
2018-05-18T01:11:02.492Z,99.90
2018-05-18T01:13:36.015Z,99.90
2018-05-18T01:16:09.593Z,99.90
2018-05-18T01:18:43.280Z,99.90
2018-05-18T01:21:17.013Z,99.90
2018-05-18T01:23:50.597Z,99.90
2018-05-18T01:26:24.208Z,99.90
2018-05-18T01:28:57.822Z,99.90
2018-05-18T01:31:31.522Z,99.90
2018-05-18T01:34:05.852Z,99.90
2018-05-18T01:36:39.518Z,99.90
2018-05-18T01:39:13.140Z,99.90
2018-05-18T01:41:46.705Z,99.90
2018-05-18T01:44:20.249Z,99.90
2018-05-18T01:46:53.824Z,99.90
2018-05-18T01:49:27.371Z,99.90
2018-05-18T01:52:00.958Z,99.90
2018-05-18T01:54:34.548Z,99.90
2018-05-18T01:57:08.602Z,99.90
2018-05-18T01:59:42.334Z,99.90
2018-05-18T02:02:15.922Z,99.90
2018-05-18T02:04:49.465Z,99.90
2018-05-18T02:07:23.136Z,99.90
2018-05-18T02:09:56.732Z,99.90
2018-05-18T02:12:30.372Z,99.90
2018-05-18T02:15:03.954Z,99.90
2018-05-18T02:17:37.760Z,99.90
2018-05-18T02:20:11.338Z,99.90
2018-05-18T02:22:44.858Z,99.90
2018-05-18T02:25:18.445Z,99.90
2018-05-18T02:27:52.213Z,99.90
2018-05-18T02:30:25.964Z,99.90
2018-05-18T02:32:59.485Z,99.90
2018-05-18T02:35:33.039Z,99.90
2018-05-18T02:38:07.369Z,99.90
2018-05-18T02:40:41.093Z,99.90
2018-05-18T02:43:14.645Z,99.90
2018-05-18T02:45:48.179Z,99.90
2018-05-18T02:48:21.746Z,99.90
2018-05-18T02:50:55.349Z,99.90
2018-05-18T02:53:29.014Z,99.90
2018-05-18T02:56:02.581Z,99.90
2018-05-18T02:58:36.152Z,99.90
2018-05-18T03:01:09.687Z,99.90
2018-05-18T03:03:43.293Z,99.90
2018-05-18T03:06:17.650Z,99.90
2018-05-18T03:08:51.249Z,99.90
2018-05-18T03:11:24.825Z,99.90
2018-05-18T03:13:58.407Z,99.90
2018-05-18T03:16:31.998Z,99.90
2018-05-18T03:19:05.578Z,99.90
2018-05-18T03:21:39.198Z,99.90
2018-05-18T03:24:13.013Z,99.90
2018-05-18T03:26:46.602Z,99.90
2018-05-18T03:29:20.214Z,99.90
2018-05-18T03:31:53.751Z,99.90
2018-05-18T03:34:27.409Z,99.90
2018-05-18T03:37:01.004Z,99.90
2018-05-18T03:39:34.603Z,99.90
2018-05-18T03:42:08.208Z,99.90
2018-05-18T03:44:41.736Z,99.90
2018-05-18T03:47:15.305Z,99.90
2018-05-18T03:49:49.041Z,99.90
2018-05-18T03:52:22.640Z,99.90
2018-05-18T03:54:56.159Z,99.90
2018-05-18T03:57:29.710Z,99.90
2018-05-18T04:00:03.312Z,99.90
2018-05-18T04:02:48.895Z,99.90
2018-05-18T04:05:34.418Z,99.90
2018-05-18T04:08:19.938Z,99.90
2018-05-18T04:10:53.552Z,99.90
2018-05-18T04:13:27.136Z,99.90
2018-05-18T04:16:00.776Z,99.90
2018-05-18T04:18:34.367Z,99.90
2018-05-18T04:21:08.696Z,99.90
2018-05-18T04:23:42.443Z,99.90
2018-05-18T04:26:16.114Z,99.90
2018-05-18T04:28:49.693Z,99.90
2018-05-18T04:31:23.270Z,99.90
2018-05-18T04:33:57.624Z,99.90
2018-05-18T04:36:31.140Z,99.90
2018-05-18T04:39:05.729Z,99.90
2018-05-18T04:41:39.330Z,99.90
2018-05-18T04:44:12.925Z,99.90
2018-05-18T04:46:46.472Z,99.90
2018-05-18T04:49:20.124Z,99.90
2018-05-18T04:51:53.693Z,99.90
2018-05-18T04:54:27.520Z,99.90
2018-05-18T04:57:01.289Z,99.90
2018-05-18T04:59:35.762Z,99.90
2018-05-18T05:02:09.494Z,99.90
2018-05-18T05:04:43.467Z,99.90
2018-05-18T05:07:17.138Z,99.90
2018-05-18T05:09:50.778Z,99.90
2018-05-18T05:12:25.303Z,99.90
2018-05-18T05:14:58.939Z,99.90
2018-05-18T05:17:32.517Z,99.90
2018-05-18T05:20:06.209Z,99.90
2018-05-18T05:22:39.815Z,99.90
2018-05-18T05:25:13.346Z,99.90
2018-05-18T05:27:46.947Z,99.90
2018-05-18T05:30:20.494Z,99.90
2018-05-18T05:32:54.042Z,99.90
2018-05-18T05:35:27.617Z,99.90
2018-05-18T05:38:01.912Z,99.90
2018-05-18T05:40:35.630Z,99.90
2018-05-18T05:43:09.942Z,99.90
2018-05-18T05:45:43.743Z,99.90
2018-05-18T05:48:17.326Z,99.90
2018-05-18T05:50:50.963Z,99.90
2018-05-18T05:53:25.477Z,99.90
2018-05-18T05:55:59.182Z,99.90
2018-05-18T05:58:32.894Z,99.90
2018-05-18T06:01:06.411Z,99.90
2018-05-18T06:03:41.049Z,99.90
2018-05-18T06:06:14.626Z,99.90
2018-05-18T06:08:48.913Z,99.90
2018-05-18T06:11:22.524Z,99.90
2018-05-18T06:13:56.081Z,99.90
2018-05-18T06:16:29.639Z,99.90
2018-05-18T06:19:03.253Z,99.90
2018-05-18T06:21:36.817Z,99.90
2018-05-18T06:24:11.144Z,99.90
2018-05-18T06:26:44.639Z,99.90
2018-05-18T06:29:18.170Z,99.90
2018-05-18T06:31:51.881Z,99.90
2018-05-18T06:34:25.382Z,99.90
2018-05-18T06:36:58.942Z,99.90
2018-05-18T06:39:32.537Z,99.90
2018-05-18T06:42:06.166Z,99.90
2018-05-18T06:44:39.775Z,99.90
2018-05-18T06:47:13.318Z,99.90
2018-05-18T06:49:46.982Z,99.90
2018-05-18T06:52:20.711Z,99.90
2018-05-18T06:54:54.340Z,99.90
2018-05-18T06:57:27.934Z,99.90
2018-05-18T07:00:01.473Z,99.90
2018-05-18T07:02:35.070Z,99.90
2018-05-18T07:05:08.648Z,99.90
2018-05-18T07:07:42.245Z,99.90
2018-05-18T07:10:15.839Z,99.90
2018-05-18T07:12:49.366Z,99.90
2018-05-18T07:15:22.951Z,99.90
2018-05-18T07:17:56.545Z,99.90
2018-05-18T07:20:30.132Z,99.90
2018-05-18T07:23:03.827Z,99.90
2018-05-18T07:25:37.335Z,99.90
2018-05-18T07:28:10.899Z,99.90
2018-05-18T07:30:45.265Z,99.90
2018-05-18T07:33:18.925Z,99.90
2018-05-18T07:35:52.499Z,99.90
2018-05-18T07:38:26.793Z,99.90
2018-05-18T07:41:00.364Z,99.90
2018-05-18T07:43:33.985Z,99.90
2018-05-18T07:46:07.516Z,99.90
2018-05-18T07:48:41.817Z,99.90
2018-05-18T07:51:15.518Z,99.90
2018-05-18T07:53:49.193Z,99.90
2018-05-18T07:56:22.727Z,99.90
2018-05-18T07:58:56.303Z,99.90
2018-05-18T08:01:29.827Z,99.90
2018-05-18T08:04:03.350Z,99.90
2018-05-18T08:06:36.827Z,99.90
2018-05-18T08:09:10.323Z,99.90
2018-05-18T08:11:43.875Z,99.90
2018-05-18T08:14:17.414Z,99.90
2018-05-18T08:16:51.021Z,99.90
2018-05-18T08:19:24.604Z,99.90
2018-05-18T08:21:58.940Z,99.90
2018-05-18T08:24:32.453Z,99.90
2018-05-18T08:27:17.901Z,99.90
2018-05-18T08:29:51.482Z,99.90
2018-05-18T08:32:25.118Z,99.90
2018-05-18T08:34:58.699Z,99.90
2018-05-18T08:37:32.289Z,99.90
2018-05-18T08:40:06.628Z,99.90
2018-05-18T08:42:41.158Z,99.90
2018-05-18T08:45:15.653Z,99.90
2018-05-18T08:47:49.428Z,99.90
2018-05-18T08:50:23.017Z,99.90
2018-05-18T08:52:56.717Z,99.90
2018-05-18T08:55:30.275Z,99.90
2018-05-18T08:58:03.901Z,99.90
2018-05-18T09:00:37.530Z,99.90
2018-05-18T09:03:10.978Z,99.90
2018-05-18T09:05:44.595Z,99.90
2018-05-18T09:08:18.191Z,99.90
2018-05-18T09:10:51.780Z,99.90
2018-05-18T09:13:25.326Z,99.90
2018-05-18T09:15:59.801Z,99.90
2018-05-18T09:18:34.114Z,99.90
2018-05-18T09:21:08.662Z,99.90
2018-05-18T09:23:42.998Z,99.90
2018-05-18T09:26:16.552Z,99.90
2018-05-18T09:28:50.343Z,99.90
2018-05-18T09:31:24.054Z,99.90
2018-05-18T09:33:58.404Z,99.90
2018-05-18T09:36:32.904Z,99.90
2018-05-18T09:39:07.416Z,99.90
2018-05-18T09:41:41.191Z,99.90
2018-05-18T09:44:14.748Z,99.80
2018-05-18T09:46:48.351Z,98.50
2018-05-18T09:49:21.931Z,99.60
2018-05-18T09:51:55.541Z,99.90
2018-05-18T09:54:29.424Z,99.10
2018-05-18T09:57:02.829Z,97.80
2018-05-18T09:59:36.347Z,97.00
2018-05-18T10:02:10.668Z,99.60
2018-05-18T10:04:44.397Z,99.60
2018-05-18T10:07:17.975Z,98.30
2018-05-18T10:09:51.596Z,98.30
2018-05-18T10:12:25.237Z,99.00
2018-05-18T10:14:58.707Z,98.40
2018-05-18T10:17:32.253Z,95.40
2018-05-18T10:20:05.862Z,96.70
2018-05-18T10:22:39.448Z,93.70
2018-05-18T10:25:12.954Z,94.20
2018-05-18T10:27:46.720Z,93.50
2018-05-18T10:30:29.184Z,91.90
2018-05-18T10:33:02.894Z,94.90
2018-05-18T10:35:36.484Z,96.80
2018-05-18T10:38:10.174Z,96.10
2018-05-18T10:40:43.778Z,97.20
2018-05-18T10:43:17.301Z,97.20
2018-05-18T10:45:50.881Z,95.30
2018-05-18T10:48:25.211Z,94.50
2018-05-18T10:50:58.836Z,94.50
2018-05-18T10:53:32.482Z,94.80
2018-05-18T10:56:06.034Z,96.70
2018-05-18T10:58:39.638Z,94.00
2018-05-18T11:01:13.087Z,92.80
2018-05-18T11:03:46.702Z,93.20
2018-05-18T11:06:20.257Z,94.50
2018-05-18T11:08:53.838Z,94.60
2018-05-18T11:11:29.014Z,93.70
2018-05-18T11:14:02.613Z,93.40
2018-05-18T11:16:36.114Z,92.00
2018-05-18T11:19:09.823Z,90.90
2018-05-18T11:21:44.064Z,92.10
2018-05-18T11:24:18.572Z,91.00
2018-05-18T11:26:52.304Z,91.00
2018-05-18T11:29:25.856Z,90.80
2018-05-18T11:31:59.453Z,90.80
2018-05-18T11:34:32.988Z,90.30
2018-05-18T11:37:07.304Z,82.50
2018-05-18T11:39:41.023Z,82.40
2018-05-18T11:42:14.681Z,78.40
2018-05-18T11:44:48.191Z,78.40
2018-05-18T11:47:21.718Z,83.90
2018-05-18T11:49:55.274Z,84.50
2018-05-18T11:52:28.819Z,82.50
2018-05-18T11:55:02.515Z,79.00
2018-05-18T11:57:36.123Z,82.50
2018-05-18T12:00:09.673Z,79.90
2018-05-18T12:02:43.303Z,80.10
2018-05-18T12:05:17.627Z,78.10
2018-05-18T12:07:52.121Z,74.00
2018-05-18T12:10:25.704Z,73.90
2018-05-18T12:12:59.313Z,75.40
2018-05-18T12:15:33.754Z,78.00
2018-05-18T12:18:08.852Z,78.20
2018-05-18T12:20:42.544Z,78.10
2018-05-18T12:23:16.915Z,74.20
2018-05-18T12:25:50.569Z,74.20
2018-05-18T12:28:24.859Z,80.30
2018-05-18T12:30:58.478Z,80.30
2018-05-18T12:33:32.037Z,81.40
2018-05-18T12:36:05.630Z,74.30
2018-05-18T12:38:39.128Z,73.80
2018-05-18T12:41:12.658Z,74.20
2018-05-18T12:43:46.958Z,72.70
2018-05-18T12:46:20.447Z,72.70
2018-05-18T12:48:54.804Z,73.80
2018-05-18T12:51:28.323Z,73.70
2018-05-18T12:54:02.016Z,79.60
2018-05-18T12:56:35.603Z,74.30
2018-05-18T12:59:09.200Z,74.00
2018-05-18T13:01:42.767Z,76.10
2018-05-18T13:04:16.370Z,75.30
2018-05-18T13:06:49.933Z,75.90
2018-05-18T13:09:23.493Z,74.50
2018-05-18T13:11:57.042Z,73.80
2018-05-18T13:14:30.659Z,74.40
2018-05-18T13:17:05.005Z,70.20
2018-05-18T13:19:38.679Z,70.10
2018-05-18T13:22:12.190Z,72.50
2018-05-18T13:24:45.769Z,74.40
2018-05-18T13:27:19.398Z,72.80
2018-05-18T13:29:53.811Z,71.50
2018-05-18T13:32:27.598Z,71.40
2018-05-18T13:35:01.149Z,72.90
2018-05-18T13:37:35.443Z,73.30
2018-05-18T13:40:09.147Z,73.20
2018-05-18T13:42:42.751Z,73.30
2018-05-18T13:45:16.338Z,74.10
2018-05-18T13:47:49.927Z,76.60
2018-05-18T13:50:23.539Z,76.00
2018-05-18T13:52:57.155Z,77.60
2018-05-18T13:55:30.780Z,76.80
2018-05-18T13:58:04.439Z,76.70
2018-05-18T14:00:37.984Z,74.70
2018-05-18T14:03:11.562Z,74.50
2018-05-18T14:05:45.116Z,74.90
2018-05-18T14:08:18.650Z,74.10
2018-05-18T14:10:52.255Z,75.20
2018-05-18T14:13:25.831Z,74.00
2018-05-18T14:15:59.368Z,72.60
2018-05-18T14:18:33.045Z,74.30
2018-05-18T14:21:06.599Z,75.10
2018-05-18T14:23:40.192Z,71.60
2018-05-18T14:26:13.769Z,70.70
2018-05-18T14:28:47.328Z,69.00
2018-05-18T14:31:20.864Z,75.00
2018-05-18T14:33:54.574Z,81.60
2018-05-18T14:36:28.202Z,87.30
2018-05-18T14:39:01.757Z,92.30
2018-05-18T14:41:35.357Z,99.90
2018-05-18T14:44:08.908Z,99.90
2018-05-18T14:46:43.243Z,99.90
2018-05-18T14:49:16.768Z,99.90
2018-05-18T14:51:51.167Z,99.90
2018-05-18T14:54:24.817Z,99.90
2018-05-18T14:56:58.388Z,99.90
2018-05-18T14:59:31.941Z,99.90
2018-05-18T15:02:06.327Z,99.90
2018-05-18T15:04:39.938Z,99.90
2018-05-18T15:07:13.494Z,99.90
2018-05-18T15:09:47.050Z,99.90
2018-05-18T15:12:20.614Z,99.90
2018-05-18T15:14:54.220Z,99.90
2018-05-18T15:17:27.819Z,99.90
2018-05-18T15:20:01.356Z,99.90
2018-05-18T15:22:34.894Z,99.90
2018-05-18T15:25:08.434Z,99.90
2018-05-18T15:27:42.023Z,99.90
2018-05-18T15:30:15.727Z,99.90
2018-05-18T15:32:49.212Z,99.90
2018-05-18T15:35:22.822Z,99.90
2018-05-18T15:37:56.401Z,99.90
2018-05-18T15:40:29.944Z,99.90
2018-05-18T15:43:03.529Z,99.90
2018-05-18T15:45:37.237Z,99.90
2018-05-18T15:48:11.498Z,99.90
2018-05-18T15:50:45.011Z,99.90
2018-05-18T15:53:18.536Z,99.90
2018-05-18T15:55:52.065Z,99.90
2018-05-18T15:58:25.720Z,99.90
2018-05-18T16:01:00.067Z,99.90
2018-05-18T16:03:34.572Z,99.90
2018-05-18T16:06:08.258Z,99.90
2018-05-18T16:08:41.782Z,99.90
2018-05-18T16:11:15.314Z,99.90
2018-05-18T16:13:48.870Z,99.90
2018-05-18T16:16:22.402Z,99.90
2018-05-18T16:18:55.946Z,99.90
2018-05-18T16:21:29.506Z,99.90
2018-05-18T16:24:03.129Z,99.90
2018-05-18T16:26:36.674Z,98.60
2018-05-18T16:29:11.003Z,98.90
2018-05-18T16:31:45.032Z,98.90
2018-05-18T16:34:18.520Z,97.30
2018-05-18T16:36:52.089Z,97.30
2018-05-18T16:39:25.717Z,96.80
2018-05-18T16:41:59.326Z,98.60
2018-05-18T16:44:32.899Z,99.90
2018-05-18T16:47:06.447Z,99.80
2018-05-18T16:49:39.994Z,99.90
2018-05-18T16:52:13.607Z,99.90
2018-05-18T16:54:47.107Z,99.90
2018-05-18T16:57:20.685Z,99.90
2018-05-18T16:59:54.231Z,99.90
2018-05-18T17:02:27.906Z,99.90
2018-05-18T17:05:01.480Z,99.90
2018-05-18T17:07:34.999Z,99.90
2018-05-18T17:10:09.320Z,99.90
2018-05-18T17:12:42.916Z,99.90
2018-05-18T17:15:16.524Z,99.90
2018-05-18T17:17:50.043Z,99.90
2018-05-18T17:20:23.623Z,99.90
2018-05-18T17:22:57.198Z,99.90
2018-05-18T17:25:30.700Z,99.90
2018-05-18T17:28:04.287Z,99.90
2018-05-18T17:30:37.942Z,99.90
2018-05-18T17:33:12.549Z,99.90
2018-05-18T17:35:46.281Z,99.90
2018-05-18T17:38:19.828Z,99.90
2018-05-18T17:40:53.423Z,99.90
2018-05-18T17:43:26.978Z,99.90
2018-05-18T17:46:00.703Z,99.90
2018-05-18T17:48:34.220Z,99.90
2018-05-18T17:51:07.984Z,99.90
2018-05-18T17:53:41.569Z,99.90
2018-05-18T17:56:15.150Z,99.90
2018-05-18T17:58:48.662Z,99.90
2018-05-18T18:01:22.381Z,99.90
2018-05-18T18:03:55.951Z,99.90
2018-05-18T18:06:29.570Z,99.90
2018-05-18T18:09:03.076Z,99.90
2018-05-18T18:11:37.432Z,99.90
2018-05-18T18:14:11.201Z,99.90
2018-05-18T18:16:44.673Z,99.90
2018-05-18T18:19:18.288Z,99.90
2018-05-18T18:21:52.165Z,99.90
2018-05-18T18:24:25.908Z,99.90
2018-05-18T18:26:59.503Z,99.90
2018-05-18T18:29:33.082Z,99.90
2018-05-18T18:32:06.638Z,99.90
2018-05-18T18:34:40.329Z,99.90
2018-05-18T18:37:14.155Z,99.90
2018-05-18T18:39:47.824Z,99.90
2018-05-18T18:42:21.384Z,99.90
2018-05-18T18:44:54.924Z,99.90
2018-05-18T18:47:28.483Z,99.90
2018-05-18T18:50:01.981Z,99.90
2018-05-18T18:52:35.534Z,99.90
2018-05-18T18:55:09.060Z,99.90
2018-05-18T18:57:42.616Z,99.90
2018-05-18T19:00:16.147Z,99.90
2018-05-18T19:02:49.894Z,99.90
2018-05-18T19:05:24.208Z,99.90
2018-05-18T19:07:58.588Z,99.90
2018-05-18T19:10:32.064Z,99.90
2018-05-18T19:13:05.724Z,99.90
2018-05-18T19:15:39.369Z,99.90
2018-05-18T19:18:12.934Z,99.90
2018-05-18T19:20:47.267Z,99.90
2018-05-18T19:23:20.929Z,99.90
2018-05-18T19:25:54.578Z,99.90
2018-05-18T19:28:28.113Z,99.90
2018-05-18T19:31:01.693Z,99.90
2018-05-18T19:33:36.079Z,99.90
2018-05-18T19:36:09.853Z,99.90
2018-05-18T19:38:43.428Z,99.90
2018-05-18T19:41:17.825Z,99.90
2018-05-18T19:43:52.346Z,99.90
2018-05-18T19:46:26.558Z,99.90
2018-05-18T19:49:00.212Z,99.90
2018-05-18T19:51:33.826Z,99.90
2018-05-18T19:54:07.414Z,99.90
2018-05-18T19:56:41.029Z,99.90
2018-05-18T19:59:14.567Z,99.90
2018-05-18T20:01:48.159Z,99.90
2018-05-18T20:04:21.921Z,99.90
2018-05-18T20:06:55.465Z,99.90
2018-05-18T20:09:29.071Z,99.90
2018-05-18T20:12:02.702Z,99.90
2018-05-18T20:14:36.970Z,99.90
2018-05-18T20:17:10.562Z,99.90
2018-05-18T20:19:44.218Z,99.90
2018-05-18T20:22:18.138Z,99.90
2018-05-18T20:24:51.704Z,99.90
2018-05-18T20:27:25.224Z,99.90
2018-05-18T20:29:58.764Z,99.90
2018-05-18T20:32:32.507Z,99.90
2018-05-18T20:35:06.199Z,99.90
2018-05-18T20:37:39.788Z,99.90
2018-05-18T20:40:13.392Z,99.90
2018-05-18T20:42:47.718Z,99.90
2018-05-18T20:45:21.459Z,99.90
2018-05-18T20:47:55.209Z,99.90
2018-05-18T20:50:28.744Z,99.90
2018-05-18T20:53:02.303Z,99.90
2018-05-18T20:55:36.849Z,99.90
2018-05-18T20:58:11.111Z,99.90
2018-05-18T21:00:45.572Z,99.90
2018-05-18T21:03:19.187Z,99.90
2018-05-18T21:05:52.777Z,99.90
2018-05-18T21:08:26.374Z,99.90
2018-05-18T21:11:00.702Z,99.90
2018-05-18T21:13:34.509Z,99.90
2018-05-18T21:16:08.115Z,99.90
2018-05-18T21:18:42.412Z,99.90
2018-05-18T21:21:16.009Z,99.90
2018-05-18T21:23:49.591Z,99.90
2018-05-18T21:26:25.226Z,99.90
2018-05-18T21:28:58.790Z,99.90
2018-05-18T21:31:32.295Z,99.90
2018-05-18T21:34:05.966Z,99.90
2018-05-18T21:36:39.509Z,99.90
2018-05-18T21:39:13.080Z,99.90
2018-05-18T21:41:46.683Z,99.90
2018-05-18T21:44:20.244Z,99.90
2018-05-18T21:46:53.809Z,99.90
2018-05-18T21:49:30.925Z,99.90
2018-05-18T21:52:04.608Z,99.90
2018-05-18T21:54:38.307Z,99.90
2018-05-18T21:57:11.841Z,99.90
2018-05-18T21:59:45.439Z,99.90
2018-05-18T22:02:19.170Z,99.90
2018-05-18T22:04:53.475Z,99.90
2018-05-18T22:07:27.072Z,99.90
2018-05-18T22:10:00.700Z,99.90
2018-05-18T22:12:34.270Z,99.90
2018-05-18T22:15:07.806Z,99.90
2018-05-18T22:17:41.508Z,99.90
2018-05-18T22:20:15.193Z,99.90
2018-05-18T22:22:48.799Z,99.90
2018-05-18T22:25:22.374Z,99.90
2018-05-18T22:27:55.958Z,99.90
2018-05-18T22:30:29.578Z,99.90
2018-05-18T22:33:03.148Z,99.90
2018-05-18T22:35:36.796Z,99.90
2018-05-18T22:38:10.501Z,99.90
2018-05-18T22:40:44.173Z,99.90
2018-05-18T22:43:17.667Z,99.90
2018-05-18T22:45:51.286Z,99.90
2018-05-18T22:48:24.825Z,99.90
2018-05-18T22:50:58.359Z,99.90
2018-05-18T22:53:32.006Z,99.90
2018-05-18T22:56:05.585Z,99.90
2018-05-18T22:58:39.194Z,99.90
2018-05-18T23:01:12.803Z,99.90
2018-05-18T23:03:46.329Z,99.90
2018-05-18T23:06:20.705Z,99.90
2018-05-18T23:08:54.394Z,99.90
2018-05-18T23:11:27.985Z,99.90
2018-05-18T23:14:01.654Z,99.90
2018-05-18T23:16:35.222Z,99.90
2018-05-18T23:19:08.799Z,99.90
2018-05-18T23:21:42.328Z,99.90
2018-05-18T23:24:15.913Z,99.90
2018-05-18T23:26:50.229Z,99.90
2018-05-18T23:29:23.988Z,99.90
2018-05-18T23:31:57.593Z,99.90
2018-05-18T23:34:31.135Z,99.90
2018-05-18T23:37:05.519Z,99.90
2018-05-18T23:39:39.177Z,99.90
2018-05-18T23:42:12.762Z,99.90
2018-05-18T23:44:46.333Z,99.90
2018-05-18T23:47:19.900Z,99.90
2018-05-18T23:49:53.459Z,99.90
2018-05-18T23:52:26.974Z,99.90
2018-05-18T23:55:00.540Z,99.90
2018-05-18T23:57:34.086Z,99.90
